createdAt,value
2022-09-14T00:02:16.779Z,0
2022-09-14T00:07:18.344Z,0
2022-09-14T00:12:20.131Z,0.88715
2022-09-14T00:17:21.724Z,0.88715
2022-09-14T00:22:23.197Z,0.88715
2022-09-14T00:27:24.839Z,0
2022-09-14T00:32:26.521Z,0
2022-09-14T00:37:27.965Z,0
2022-09-14T00:42:29.496Z,0
2022-09-14T00:47:31.236Z,0
2022-09-14T00:52:33.313Z,0.88715
2022-09-14T00:57:35.051Z,0
2022-09-14T01:02:36.907Z,0.88715
2022-09-14T01:07:38.420Z,0
2022-09-14T01:12:40.198Z,0
2022-09-14T01:17:41.991Z,0
2022-09-14T01:22:43.923Z,0
2022-09-14T01:27:45.825Z,0
2022-09-14T01:32:47.789Z,0.88715
2022-09-14T01:37:49.411Z,0
2022-09-14T01:42:51.037Z,0
2022-09-14T01:47:52.461Z,0
2022-09-14T01:52:54.170Z,0.88715
2022-09-14T01:57:55.831Z,0.88715
2022-09-14T02:02:57.460Z,0
2022-09-14T02:07:59.158Z,0
2022-09-14T02:13:00.810Z,0.88715
2022-09-14T02:18:02.244Z,0
2022-09-14T02:23:03.829Z,0.88715
2022-09-14T02:28:05.646Z,0.88715
2022-09-14T02:33:07.662Z,0
2022-09-14T02:38:09.420Z,0.88715
2022-09-14T02:43:11.208Z,0.88715
2022-09-14T02:48:13.148Z,0
2022-09-14T02:53:15.081Z,0
2022-09-14T02:58:17.079Z,0.88715
2022-09-14T03:03:19.056Z,0
2022-09-14T03:08:20.813Z,0
2022-09-14T03:13:22.639Z,0
2022-09-14T03:18:24.506Z,0.88715
2022-09-14T03:23:26.445Z,0
2022-09-14T03:28:28.214Z,0.88715
2022-09-14T03:33:30.200Z,0.88715
2022-09-14T03:38:31.779Z,0.88715
2022-09-14T03:43:33.541Z,0
2022-09-14T03:48:35.559Z,0.4148
2022-09-14T03:53:37.479Z,1.2444
2022-09-14T03:58:39.256Z,2.42955
2022-09-14T04:03:41.301Z,7.1004
2022-09-14T04:08:43.263Z,13.8319
2022-09-14T04:13:45.083Z,29.67375
2022-09-14T04:18:46.843Z,46.06895
2022-09-14T04:24:13.255Z,68.08895
2022-09-14T04:29:15.972Z,92.6171
2022-09-14T04:34:17.596Z,118.9156
2022-09-14T04:39:19.256Z,148.33075
2022-09-14T04:44:20.844Z,173.4674
2022-09-14T04:49:22.428Z,205.8889
2022-09-14T04:54:24.115Z,220.86365
2022-09-14T04:59:25.791Z,246.6088
2022-09-14T05:04:28.364Z,262.0266
2022-09-14T05:09:30.174Z,282.9399
2022-09-14T05:14:31.865Z,300.73655
2022-09-14T05:19:33.539Z,319.6399
2022-09-14T05:24:35.151Z,358.0741
2022-09-14T05:29:36.589Z,392.41425
2022-09-14T05:34:39.068Z,417.16485
2022-09-14T05:39:40.750Z,455.11985
2022-09-14T05:44:42.189Z,481.8804
2022-09-14T05:49:43.636Z,505.6346
2022-09-14T05:54:45.094Z,548.8265
2022-09-14T05:59:46.641Z,564.8718
2022-09-14T06:04:48.501Z,588.1278
2022-09-14T06:09:50.206Z,610.59085
2022-09-14T06:14:51.674Z,632.8143
2022-09-14T06:19:53.603Z,659.92475
2022-09-14T06:24:55.188Z,683.9737
2022-09-14T06:29:56.645Z,701.9738
2022-09-14T06:34:58.292Z,721.9287
2022-09-14T06:39:59.981Z,743.1196
2022-09-14T06:45:01.461Z,767.42715
2022-09-14T06:50:03.050Z,779.93175
2022-09-14T06:55:04.643Z,789.50415
2022-09-14T07:00:06.193Z,802.96715
2022-09-14T07:05:07.900Z,844.537
2022-09-14T07:10:09.454Z,856.4331
2022-09-14T07:15:10.886Z,878.2325
2022-09-14T07:20:12.447Z,893.85375
2022-09-14T07:25:14.000Z,901.4162
2022-09-14T07:30:15.498Z,923.1053
2022-09-14T07:35:17.186Z,951.2673
2022-09-14T07:40:18.828Z,968.5486
2022-09-14T07:45:20.347Z,980.51885
2022-09-14T07:50:21.925Z,1009.06875
2022-09-14T07:55:23.484Z,1022.20085
2022-09-14T08:00:25.474Z,1036.91885
2022-09-14T08:05:27.483Z,1076.6632
2022-09-14T08:10:29.364Z,1088.02495
2022-09-14T08:15:31.143Z,1118.3452
2022-09-14T08:20:32.936Z,1145.84355
2022-09-14T08:25:34.772Z,1163.25415
2022-09-14T08:30:36.323Z,1197.8529
2022-09-14T08:35:56.879Z,1195.9171
2022-09-14T08:40:59.613Z,1237.4318
2022-09-14T08:46:01.188Z,1266.51605
2022-09-14T08:51:02.775Z,1293.037
2022-09-14T08:56:04.335Z,1319.07875
2022-09-14T09:01:05.827Z,1350.7453
2022-09-14T09:06:07.462Z,1389.60355
2022-09-14T09:11:09.011Z,1386.6352
2022-09-14T09:16:10.528Z,1456.49635
2022-09-14T09:21:12.224Z,1459.07865
2022-09-14T09:26:13.959Z,1525.9316
2022-09-14T09:31:15.773Z,1508.04365
2022-09-14T09:36:18.142Z,1574.52955
2022-09-14T09:41:19.843Z,1568.27725
2022-09-14T09:46:21.556Z,1604.7015
2022-09-14T09:51:24.142Z,1676.23985
2022-09-14T09:56:25.987Z,1694.84845
2022-09-14T10:01:27.723Z,1733.6154
2022-09-14T10:06:30.438Z,1797.44485
2022-09-14T10:11:32.206Z,1832.5951
2022-09-14T10:16:34.168Z,1883.73735
2022-09-14T10:21:36.012Z,1858.83845
2022-09-14T10:26:37.829Z,1899.32245
2022-09-14T10:31:39.744Z,1940.668
2022-09-14T10:36:43.040Z,2028.58255
2022-09-14T10:41:44.737Z,2035.7381
2022-09-14T10:46:46.284Z,2041.54735
2022-09-14T10:51:48.140Z,2093.1308
2022-09-14T10:56:49.917Z,2113.8615
2022-09-14T11:01:51.879Z,2248.4915
2022-09-14T11:06:53.935Z,2215.12875
2022-09-14T11:11:55.757Z,1562.2099
2022-09-14T11:16:57.634Z,2257.17595
2022-09-14T11:21:59.125Z,2286.998
2022-09-14T11:27:00.632Z,1216.76835
2022-09-14T11:32:19.937Z,2425.09825
2022-09-14T11:37:22.970Z,1969.458
2022-09-14T11:42:24.526Z,2439.67955
2022-09-14T11:47:26.012Z,2270.0856
2022-09-14T11:52:27.451Z,2459.15525
2022-09-14T11:57:28.952Z,2492.7729
2022-09-14T12:02:30.511Z,2457.43635
2022-09-14T12:07:32.277Z,1081.25225
2022-09-14T12:12:33.722Z,1095.10315
2022-09-14T12:17:39.915Z,2450.65155
2022-09-14T12:22:41.993Z,2288.70395
2022-09-14T12:27:43.554Z,1968.6289
2022-09-14T12:32:45.009Z,2452.5855
2022-09-14T12:37:46.619Z,2345.06595
2022-09-14T12:42:48.150Z,1088.39065
2022-09-14T12:47:49.624Z,1330.8938
2022-09-14T12:52:51.083Z,1107.6819
2022-09-14T12:57:52.583Z,811.7925
2022-09-14T13:02:54.331Z,940.06175
2022-09-14T13:07:56.025Z,799.9344
2022-09-14T13:12:57.488Z,2202.72335
2022-09-14T13:17:58.963Z,2086.27975
2022-09-14T13:23:00.411Z,763.30855
2022-09-14T13:28:01.992Z,724.0624
2022-09-14T13:33:03.475Z,1957.2537
2022-09-14T13:38:05.320Z,2037.1989
2022-09-14T13:43:06.946Z,698.8859
2022-09-14T13:48:08.374Z,625.04285
2022-09-14T13:53:09.802Z,1567.47135
2022-09-14T13:58:11.422Z,717.8824
2022-09-14T14:03:12.906Z,764.10705
2022-09-14T14:08:14.548Z,588.1774
2022-09-14T14:13:16.407Z,621.7246
2022-09-14T14:18:18.301Z,1364.73155
2022-09-14T14:23:20.098Z,1402.97945
2022-09-14T14:28:21.906Z,1387.52365
2022-09-14T14:33:23.446Z,1246.20015
2022-09-14T14:38:25.494Z,1139.49255
2022-09-14T14:43:27.466Z,976.0749
2022-09-14T14:48:29.327Z,843.73245
2022-09-14T14:53:31.173Z,432.2842
2022-09-14T14:58:36.252Z,364.8779
2022-09-14T15:03:38.102Z,331.9772
2022-09-14T15:08:39.838Z,303.0051
2022-09-14T15:13:41.377Z,240.1701
2022-09-14T15:18:42.870Z,209.05985
2022-09-14T15:23:44.689Z,178.72
2022-09-14T15:28:46.768Z,146.8988
2022-09-14T15:33:48.655Z,121.9515
2022-09-14T15:38:50.774Z,87.2861
2022-09-14T15:43:52.522Z,71.83495
2022-09-14T15:48:54.438Z,54.9777
2022-09-14T15:53:56.538Z,41.4957
2022-09-14T15:58:58.391Z,27.71895
2022-09-14T16:04:00.331Z,10.5308
2022-09-14T16:09:02.018Z,4.2665
2022-09-14T16:14:03.695Z,2.54805
2022-09-14T16:19:05.139Z,0.8296
2022-09-14T16:24:06.638Z,0
2022-09-14T16:29:08.185Z,0.88715
2022-09-14T16:34:09.681Z,0.88715
2022-09-14T16:39:11.382Z,0.88715
2022-09-14T16:44:13.013Z,0
2022-09-14T16:49:14.461Z,0
2022-09-14T16:54:15.919Z,0
2022-09-14T16:59:17.571Z,0.88715
2022-09-14T17:04:19.020Z,0
2022-09-14T17:09:20.864Z,0
2022-09-14T17:14:22.389Z,0.88715
2022-09-14T17:19:24.059Z,0.88715
2022-09-14T17:24:25.739Z,0
2022-09-14T17:29:27.456Z,0
2022-09-14T17:34:29.085Z,0.88715
2022-09-14T17:39:31.043Z,0
2022-09-14T17:44:32.749Z,0.88715
2022-09-14T17:49:34.389Z,0
2022-09-14T17:54:36.283Z,0
2022-09-14T17:59:37.925Z,0.88715
2022-09-14T18:04:39.822Z,0
2022-09-14T18:09:41.657Z,0
2022-09-14T18:14:43.324Z,0
2022-09-14T18:19:45.106Z,0.88715
2022-09-14T18:24:46.864Z,0
2022-09-14T18:29:48.634Z,0.88715
2022-09-14T18:34:50.518Z,0.88715
2022-09-14T18:39:52.618Z,0
2022-09-14T18:44:54.666Z,0
2022-09-14T18:49:56.416Z,0
2022-09-14T18:54:58.271Z,0
2022-09-14T19:00:00.078Z,0
2022-09-14T19:05:01.884Z,0.88715
2022-09-14T19:10:03.719Z,0.88715
2022-09-14T19:15:05.249Z,0
2022-09-14T19:20:06.712Z,0.88715
2022-09-14T19:25:08.162Z,0.88715
2022-09-14T19:30:09.678Z,0
2022-09-14T19:35:11.132Z,0
2022-09-14T19:40:12.972Z,0.88715
2022-09-14T19:45:14.730Z,0
2022-09-14T19:50:16.216Z,0
2022-09-14T19:55:17.750Z,0
2022-09-14T20:00:19.938Z,0.88715
2022-09-14T20:05:21.578Z,0
2022-09-14T20:10:23.547Z,0
2022-09-14T20:15:26.144Z,0.88715
2022-09-14T20:20:27.850Z,0
2022-09-14T20:25:29.892Z,0
2022-09-14T20:30:31.709Z,0.88715
2022-09-14T20:35:33.392Z,0.88715
2022-09-14T20:40:35.336Z,0
2022-09-14T20:45:37.216Z,0
2022-09-14T20:50:38.988Z,0
2022-09-14T20:55:40.620Z,0
2022-09-14T21:00:42.415Z,0.88715
2022-09-14T21:05:43.923Z,0.88715
2022-09-14T21:10:45.819Z,0
2022-09-14T21:15:47.400Z,0
2022-09-14T21:20:48.960Z,0.88715
2022-09-14T21:25:50.460Z,0
2022-09-14T21:30:52.076Z,0.88715
2022-09-14T21:35:53.612Z,0
2022-09-14T21:40:55.290Z,0.88715
2022-09-14T21:45:56.797Z,0
2022-09-14T21:50:58.394Z,0
2022-09-14T21:55:59.890Z,0
2022-09-14T22:01:01.573Z,0
2022-09-14T22:06:03.099Z,0.88715
2022-09-14T22:11:04.712Z,0
2022-09-14T22:16:06.357Z,0
2022-09-14T22:21:08.008Z,0
2022-09-14T22:26:09.495Z,0
2022-09-14T22:31:11.088Z,0
2022-09-14T22:36:12.612Z,0.88715
2022-09-14T22:41:14.547Z,0.88715
2022-09-14T22:46:16.256Z,0
2022-09-14T22:51:18.197Z,0.88715
2022-09-14T22:56:20.068Z,0.88715
2022-09-14T23:01:21.541Z,0
2022-09-14T23:06:23.009Z,0
2022-09-14T23:11:24.781Z,0.88715
2022-09-14T23:16:26.958Z,0
2022-09-14T23:21:28.518Z,0
2022-09-14T23:26:29.864Z,0.88715
2022-09-14T23:31:31.431Z,0
2022-09-14T23:36:32.933Z,0
2022-09-14T23:41:34.540Z,0.88715
2022-09-14T23:46:36.033Z,0
2022-09-14T23:51:37.501Z,0.88715
2022-09-14T23:56:39.107Z,0.88715
